sensor_id;sensor_type;location;lat;lon;timestamp;P1;durP1;ratioP1;P2;durP2;ratioP2
69203;SDS011;56317;27.658;85.326;2023-06-10T00:02:12;67.15;;;40.15;;
69203;SDS011;56317;27.658;85.326;2023-06-10T00:04:40;74.15;;;39.65;;
69203;SDS011;56317;27.658;85.326;2023-06-10T00:07:08;64.13;;;37.58;;
69203;SDS011;56317;27.658;85.326;2023-06-10T00:09:35;64.35;;;36.60;;
69203;SDS011;56317;27.658;85.326;2023-06-10T00:12:06;65.50;;;38.95;;
69203;SDS011;56317;27.658;85.326;2023-06-10T00:14:38;64.13;;;36.70;;
69203;SDS011;56317;27.658;85.326;2023-06-10T00:19:38;125.32;;;40.50;;
69203;SDS011;56317;27.658;85.326;2023-06-10T00:22:06;60.80;;;36.05;;
69203;SDS011;56317;27.658;85.326;2023-06-10T00:24:34;60.22;;;35.03;;
69203;SDS011;56317;27.658;85.326;2023-06-10T00:27:02;59.55;;;36.03;;
69203;SDS011;56317;27.658;85.326;2023-06-10T00:29:29;67.95;;;35.75;;
69203;SDS011;56317;27.658;85.326;2023-06-10T00:31:56;59.70;;;34.67;;
69203;SDS011;56317;27.658;85.326;2023-06-10T00:34:23;57.53;;;34.10;;
69203;SDS011;56317;27.658;85.326;2023-06-10T00:36:51;62.05;;;35.78;;
69203;SDS011;56317;27.658;85.326;2023-06-10T00:39:18;62.47;;;35.67;;
69203;SDS011;56317;27.658;85.326;2023-06-10T00:41:45;56.80;;;34.67;;
69203;SDS011;56317;27.658;85.326;2023-06-10T00:44:12;63.20;;;34.45;;
69203;SDS011;56317;27.658;85.326;2023-06-10T00:46:39;71.43;;;36.15;;
69203;SDS011;56317;27.658;85.326;2023-06-10T00:49:07;64.90;;;35.83;;
69203;SDS011;56317;27.658;85.326;2023-06-10T00:51:35;57.67;;;34.80;;
69203;SDS011;56317;27.658;85.326;2023-06-10T00:54:02;58.55;;;35.42;;
69203;SDS011;56317;27.658;85.326;2023-06-10T00:56:30;69.10;;;38.70;;
69203;SDS011;56317;27.658;85.326;2023-06-10T00:59:00;71.70;;;41.47;;
69203;SDS011;56317;27.658;85.326;2023-06-10T01:01:28;80.07;;;44.50;;
69203;SDS011;56317;27.658;85.326;2023-06-10T01:03:55;84.05;;;44.58;;
69203;SDS011;56317;27.658;85.326;2023-06-10T01:09:19;73.97;;;44.33;;
69203;SDS011;56317;27.658;85.326;2023-06-10T01:11:52;76.83;;;45.23;;
69203;SDS011;56317;27.658;85.326;2023-06-10T01:14:33;85.30;;;45.38;;
69203;SDS011;56317;27.658;85.326;2023-06-10T01:17:01;80.80;;;44.97;;
69203;SDS011;56317;27.658;85.326;2023-06-10T01:19:37;90.35;;;46.78;;
69203;SDS011;56317;27.658;85.326;2023-06-10T01:22:06;81.72;;;47.92;;
69203;SDS011;56317;27.658;85.326;2023-06-10T01:24:33;89.68;;;45.92;;
69203;SDS011;56317;27.658;85.326;2023-06-10T01:27:01;79.68;;;48.17;;
69203;SDS011;56317;27.658;85.326;2023-06-10T01:29:37;83.13;;;48.13;;
69203;SDS011;56317;27.658;85.326;2023-06-10T01:32:18;85.95;;;46.65;;
69203;SDS011;56317;27.658;85.326;2023-06-10T01:34:52;77.95;;;43.33;;
69203;SDS011;56317;27.658;85.326;2023-06-10T01:37:20;75.80;;;42.83;;
69203;SDS011;56317;27.658;85.326;2023-06-10T01:39:50;75.47;;;42.83;;
69203;SDS011;56317;27.658;85.326;2023-06-10T01:42:19;61.60;;;38.28;;
69203;SDS011;56317;27.658;85.326;2023-06-10T01:44:47;71.63;;;39.13;;
69203;SDS011;56317;27.658;85.326;2023-06-10T01:47:14;73.45;;;41.22;;
69203;SDS011;56317;27.658;85.326;2023-06-10T01:49:42;71.22;;;40.65;;
69203;SDS011;56317;27.658;85.326;2023-06-10T01:52:09;131.60;;;62.92;;
69203;SDS011;56317;27.658;85.326;2023-06-10T01:54:36;90.43;;;46.08;;
69203;SDS011;56317;27.658;85.326;2023-06-10T01:57:03;68.75;;;37.13;;
69203;SDS011;56317;27.658;85.326;2023-06-10T01:59:31;60.05;;;36.67;;
69203;SDS011;56317;27.658;85.326;2023-06-10T02:01:58;54.72;;;35.30;;
69203;SDS011;56317;27.658;85.326;2023-06-10T02:04:26;74.90;;;38.22;;
69203;SDS011;56317;27.658;85.326;2023-06-10T02:06:54;64.05;;;35.95;;
69203;SDS011;56317;27.658;85.326;2023-06-10T02:09:21;59.40;;;35.92;;
69203;SDS011;56317;27.658;85.326;2023-06-10T02:11:48;57.70;;;33.70;;
69203;SDS011;56317;27.658;85.326;2023-06-10T02:14:15;74.38;;;37.42;;
69203;SDS011;56317;27.658;85.326;2023-06-10T02:16:43;62.33;;;33.03;;
69203;SDS011;56317;27.658;85.326;2023-06-10T02:19:12;65.63;;;36.72;;
69203;SDS011;56317;27.658;85.326;2023-06-10T02:21:40;58.92;;;31.83;;
69203;SDS011;56317;27.658;85.326;2023-06-10T02:24:07;59.92;;;35.70;;
69203;SDS011;56317;27.658;85.326;2023-06-10T02:26:34;62.88;;;36.63;;
69203;SDS011;56317;27.658;85.326;2023-06-10T02:29:01;59.88;;;39.30;;
69203;SDS011;56317;27.658;85.326;2023-06-10T02:31:29;72.40;;;37.72;;
69203;SDS011;56317;27.658;85.326;2023-06-10T02:33:56;83.20;;;40.70;;
69203;SDS011;56317;27.658;85.326;2023-06-10T02:36:23;61.17;;;36.55;;
69203;SDS011;56317;27.658;85.326;2023-06-10T02:38:53;67.63;;;37.50;;
69203;SDS011;56317;27.658;85.326;2023-06-10T02:41:21;66.40;;;37.95;;
69203;SDS011;56317;27.658;85.326;2023-06-10T02:43:48;71.20;;;38.17;;
69203;SDS011;56317;27.658;85.326;2023-06-10T02:46:15;70.20;;;35.58;;
69203;SDS011;56317;27.658;85.326;2023-06-10T02:48:43;68.50;;;35.83;;
69203;SDS011;56317;27.658;85.326;2023-06-10T02:51:12;61.30;;;34.67;;
69203;SDS011;56317;27.658;85.326;2023-06-10T02:53:39;58.35;;;33.47;;
69203;SDS011;56317;27.658;85.326;2023-06-10T02:56:06;61.17;;;32.90;;
69203;SDS011;56317;27.658;85.326;2023-06-10T02:58:33;57.25;;;30.63;;
69203;SDS011;56317;27.658;85.326;2023-06-10T03:01:00;54.40;;;31.45;;
69203;SDS011;56317;27.658;85.326;2023-06-10T03:03:28;63.35;;;32.60;;
69203;SDS011;56317;27.658;85.326;2023-06-10T03:05:56;61.67;;;33.25;;
69203;SDS011;56317;27.658;85.326;2023-06-10T03:08:24;58.55;;;31.63;;
69203;SDS011;56317;27.658;85.326;2023-06-10T03:10:51;55.30;;;31.08;;
69203;SDS011;56317;27.658;85.326;2023-06-10T03:13:18;43.70;;;27.88;;
69203;SDS011;56317;27.658;85.326;2023-06-10T03:15:46;52.17;;;28.45;;
69203;SDS011;56317;27.658;85.326;2023-06-10T03:18:13;69.05;;;30.88;;
69203;SDS011;56317;27.658;85.326;2023-06-10T03:20:41;53.35;;;28.92;;
69203;SDS011;56317;27.658;85.326;2023-06-10T03:23:11;54.63;;;31.30;;
69203;SDS011;56317;27.658;85.326;2023-06-10T03:25:38;50.35;;;26.17;;
69203;SDS011;56317;27.658;85.326;2023-06-10T03:28:05;45.78;;;28.30;;
69203;SDS011;56317;27.658;85.326;2023-06-10T03:30:32;57.03;;;28.38;;
69203;SDS011;56317;27.658;85.326;2023-06-10T03:32:59;58.25;;;28.00;;
69203;SDS011;56317;27.658;85.326;2023-06-10T03:35:26;56.58;;;28.15;;
69203;SDS011;56317;27.658;85.326;2023-06-10T03:37:53;45.30;;;26.95;;
69203;SDS011;56317;27.658;85.326;2023-06-10T03:40:20;52.60;;;28.23;;
69203;SDS011;56317;27.658;85.326;2023-06-10T03:42:49;49.50;;;27.50;;
69203;SDS011;56317;27.658;85.326;2023-06-10T03:45:16;42.55;;;26.13;;
69203;SDS011;56317;27.658;85.326;2023-06-10T03:47:44;48.90;;;25.02;;
69203;SDS011;56317;27.658;85.326;2023-06-10T03:50:13;53.70;;;27.50;;
69203;SDS011;56317;27.658;85.326;2023-06-10T03:52:40;56.28;;;27.95;;
69203;SDS011;56317;27.658;85.326;2023-06-10T03:55:08;52.60;;;27.65;;
69203;SDS011;56317;27.658;85.326;2023-06-10T03:57:36;57.80;;;27.75;;
69203;SDS011;56317;27.658;85.326;2023-06-10T04:00:04;48.65;;;26.65;;
69203;SDS011;56317;27.658;85.326;2023-06-10T04:02:40;55.25;;;27.17;;
69203;SDS011;56317;27.658;85.326;2023-06-10T04:05:19;52.70;;;26.17;;
69203;SDS011;56317;27.658;85.326;2023-06-10T04:07:47;48.42;;;26.58;;
69203;SDS011;56317;27.658;85.326;2023-06-10T04:10:14;51.80;;;27.27;;
69203;SDS011;56317;27.658;85.326;2023-06-10T04:12:42;45.08;;;26.45;;
69203;SDS011;56317;27.658;85.326;2023-06-10T04:15:09;49.00;;;27.40;;
69203;SDS011;56317;27.658;85.326;2023-06-10T04:17:37;51.13;;;27.02;;
69203;SDS011;56317;27.658;85.326;2023-06-10T04:20:05;44.83;;;25.15;;
69203;SDS011;56317;27.658;85.326;2023-06-10T04:22:33;43.83;;;27.17;;
69203;SDS011;56317;27.658;85.326;2023-06-10T04:25:01;58.00;;;27.08;;
69203;SDS011;56317;27.658;85.326;2023-06-10T04:27:29;52.70;;;26.63;;
69203;SDS011;56317;27.658;85.326;2023-06-10T04:29:56;42.65;;;28.35;;
69203;SDS011;56317;27.658;85.326;2023-06-10T04:32:23;49.50;;;29.85;;
69203;SDS011;56317;27.658;85.326;2023-06-10T04:34:52;62.58;;;31.25;;
69203;SDS011;56317;27.658;85.326;2023-06-10T04:37:21;55.63;;;32.05;;
69203;SDS011;56317;27.658;85.326;2023-06-10T04:39:48;49.92;;;34.42;;
69203;SDS011;56317;27.658;85.326;2023-06-10T04:42:15;53.70;;;31.60;;
69203;SDS011;56317;27.658;85.326;2023-06-10T04:44:42;59.05;;;31.55;;
69203;SDS011;56317;27.658;85.326;2023-06-10T04:47:09;50.95;;;30.45;;
69203;SDS011;56317;27.658;85.326;2023-06-10T04:49:36;52.90;;;31.30;;
69203;SDS011;56317;27.658;85.326;2023-06-10T04:52:03;54.83;;;31.35;;
69203;SDS011;56317;27.658;85.326;2023-06-10T04:54:30;57.90;;;29.83;;
69203;SDS011;56317;27.658;85.326;2023-06-10T04:56:58;52.50;;;28.67;;
69203;SDS011;56317;27.658;85.326;2023-06-10T04:59:25;53.72;;;31.05;;
69203;SDS011;56317;27.658;85.326;2023-06-10T05:01:55;49.05;;;29.15;;
69203;SDS011;56317;27.658;85.326;2023-06-10T05:04:23;42.00;;;25.92;;
69203;SDS011;56317;27.658;85.326;2023-06-10T05:06:50;50.67;;;25.77;;
69203;SDS011;56317;27.658;85.326;2023-06-10T05:09:18;44.00;;;27.92;;
69203;SDS011;56317;27.658;85.326;2023-06-10T05:11:45;46.20;;;25.92;;
69203;SDS011;56317;27.658;85.326;2023-06-10T05:14:12;42.08;;;21.70;;
69203;SDS011;56317;27.658;85.326;2023-06-10T05:16:41;40.17;;;21.30;;
69203;SDS011;56317;27.658;85.326;2023-06-10T05:19:08;44.88;;;23.42;;
69203;SDS011;56317;27.658;85.326;2023-06-10T05:21:36;47.78;;;24.50;;
69203;SDS011;56317;27.658;85.326;2023-06-10T05:24:04;51.85;;;24.27;;
69203;SDS011;56317;27.658;85.326;2023-06-10T05:26:31;40.92;;;23.08;;
69203;SDS011;56317;27.658;85.326;2023-06-10T05:31:29;48.78;;;20.67;;
69203;SDS011;56317;27.658;85.326;2023-06-10T05:33:56;43.95;;;21.17;;
69203;SDS011;56317;27.658;85.326;2023-06-10T05:36:23;41.40;;;22.33;;
69203;SDS011;56317;27.658;85.326;2023-06-10T05:38:53;34.83;;;20.80;;
69203;SDS011;56317;27.658;85.326;2023-06-10T05:41:20;39.42;;;21.77;;
69203;SDS011;56317;27.658;85.326;2023-06-10T05:43:47;30.08;;;21.08;;
69203;SDS011;56317;27.658;85.326;2023-06-10T05:46:14;42.60;;;21.95;;
69203;SDS011;56317;27.658;85.326;2023-06-10T05:48:41;32.30;;;19.70;;
69203;SDS011;56317;27.658;85.326;2023-06-10T05:51:08;37.65;;;21.55;;
69203;SDS011;56317;27.658;85.326;2023-06-10T05:53:36;42.38;;;22.15;;
69203;SDS011;56317;27.658;85.326;2023-06-10T05:56:04;38.58;;;23.80;;
69203;SDS011;56317;27.658;85.326;2023-06-10T05:58:31;46.55;;;24.38;;
69203;SDS011;56317;27.658;85.326;2023-06-10T06:00:58;40.50;;;22.92;;
69203;SDS011;56317;27.658;85.326;2023-06-10T06:03:25;38.58;;;24.00;;
69203;SDS011;56317;27.658;85.326;2023-06-10T06:05:54;50.92;;;24.23;;
69203;SDS011;56317;27.658;85.326;2023-06-10T06:08:21;52.97;;;27.17;;
69203;SDS011;56317;27.658;85.326;2023-06-10T06:10:48;44.95;;;24.45;;
69203;SDS011;56317;27.658;85.326;2023-06-10T06:13:15;46.47;;;24.95;;
69203;SDS011;56317;27.658;85.326;2023-06-10T06:15:42;48.33;;;25.38;;
69203;SDS011;56317;27.658;85.326;2023-06-10T06:18:09;39.67;;;23.48;;
69203;SDS011;56317;27.658;85.326;2023-06-10T06:20:36;41.67;;;22.95;;
69203;SDS011;56317;27.658;85.326;2023-06-10T06:23:03;42.65;;;23.08;;
69203;SDS011;56317;27.658;85.326;2023-06-10T06:25:30;41.42;;;23.15;;
69203;SDS011;56317;27.658;85.326;2023-06-10T06:27:57;38.20;;;21.98;;
69203;SDS011;56317;27.658;85.326;2023-06-10T06:30:24;34.60;;;21.50;;
69203;SDS011;56317;27.658;85.326;2023-06-10T06:32:51;44.55;;;22.40;;
69203;SDS011;56317;27.658;85.326;2023-06-10T06:35:18;37.78;;;21.35;;
69203;SDS011;56317;27.658;85.326;2023-06-10T06:37:45;34.88;;;20.75;;
69203;SDS011;56317;27.658;85.326;2023-06-10T06:40:12;40.35;;;21.88;;
69203;SDS011;56317;27.658;85.326;2023-06-10T06:42:39;30.02;;;19.38;;
69203;SDS011;56317;27.658;85.326;2023-06-10T06:45:06;34.53;;;18.80;;
69203;SDS011;56317;27.658;85.326;2023-06-10T06:47:34;37.80;;;20.17;;
69203;SDS011;56317;27.658;85.326;2023-06-10T06:50:01;39.30;;;20.88;;
69203;SDS011;56317;27.658;85.326;2023-06-10T06:52:28;36.55;;;19.77;;
69203;SDS011;56317;27.658;85.326;2023-06-10T06:54:56;37.05;;;20.00;;
69203;SDS011;56317;27.658;85.326;2023-06-10T06:57:23;39.80;;;21.10;;
69203;SDS011;56317;27.658;85.326;2023-06-10T06:59:50;38.85;;;21.33;;
69203;SDS011;56317;27.658;85.326;2023-06-10T07:02:17;42.05;;;22.08;;
69203;SDS011;56317;27.658;85.326;2023-06-10T07:04:44;31.13;;;19.92;;
69203;SDS011;56317;27.658;85.326;2023-06-10T07:07:14;41.78;;;21.88;;
69203;SDS011;56317;27.658;85.326;2023-06-10T07:09:41;41.03;;;21.60;;
69203;SDS011;56317;27.658;85.326;2023-06-10T07:12:08;37.17;;;21.40;;
69203;SDS011;56317;27.658;85.326;2023-06-10T07:14:35;35.60;;;18.10;;
69203;SDS011;56317;27.658;85.326;2023-06-10T07:17:02;34.50;;;18.75;;
69203;SDS011;56317;27.658;85.326;2023-06-10T07:19:29;45.72;;;21.60;;
69203;SDS011;56317;27.658;85.326;2023-06-10T07:21:56;44.90;;;23.70;;
69203;SDS011;56317;27.658;85.326;2023-06-10T07:24:23;40.42;;;22.95;;
69203;SDS011;56317;27.658;85.326;2023-06-10T07:26:50;42.38;;;22.95;;
69203;SDS011;56317;27.658;85.326;2023-06-10T07:29:18;36.85;;;22.23;;
69203;SDS011;56317;27.658;85.326;2023-06-10T07:31:45;34.50;;;22.63;;
69203;SDS011;56317;27.658;85.326;2023-06-10T07:34:12;41.42;;;21.30;;
69203;SDS011;56317;27.658;85.326;2023-06-10T07:36:40;39.65;;;22.08;;
69203;SDS011;56317;27.658;85.326;2023-06-10T07:39:07;36.42;;;21.67;;
69203;SDS011;56317;27.658;85.326;2023-06-10T07:41:34;40.13;;;19.13;;
69203;SDS011;56317;27.658;85.326;2023-06-10T07:44:01;32.08;;;18.90;;
69203;SDS011;56317;27.658;85.326;2023-06-10T07:46:28;34.17;;;18.35;;
69203;SDS011;56317;27.658;85.326;2023-06-10T07:48:55;39.78;;;22.00;;
69203;SDS011;56317;27.658;85.326;2023-06-10T07:51:22;38.92;;;21.15;;
69203;SDS011;56317;27.658;85.326;2023-06-10T07:53:49;32.33;;;19.65;;
69203;SDS011;56317;27.658;85.326;2023-06-10T07:56:16;38.10;;;22.05;;
69203;SDS011;56317;27.658;85.326;2023-06-10T07:58:43;40.75;;;20.00;;
69203;SDS011;56317;27.658;85.326;2023-06-10T08:01:10;31.50;;;20.42;;
69203;SDS011;56317;27.658;85.326;2023-06-10T08:03:37;40.97;;;20.05;;
69203;SDS011;56317;27.658;85.326;2023-06-10T08:06:04;33.80;;;18.30;;
69203;SDS011;56317;27.658;85.326;2023-06-10T08:08:31;27.45;;;18.10;;
69203;SDS011;56317;27.658;85.326;2023-06-10T08:11:01;32.47;;;18.08;;
69203;SDS011;56317;27.658;85.326;2023-06-10T08:13:28;27.00;;;17.77;;
69203;SDS011;56317;27.658;85.326;2023-06-10T08:15:55;28.80;;;18.00;;
69203;SDS011;56317;27.658;85.326;2023-06-10T08:18:22;40.90;;;22.05;;
69203;SDS011;56317;27.658;85.326;2023-06-10T08:20:50;37.60;;;20.25;;
69203;SDS011;56317;27.658;85.326;2023-06-10T08:23:17;28.95;;;17.98;;
69203;SDS011;56317;27.658;85.326;2023-06-10T08:25:45;35.85;;;18.83;;
69203;SDS011;56317;27.658;85.326;2023-06-10T08:28:12;39.25;;;18.98;;
69203;SDS011;56317;27.658;85.326;2023-06-10T08:30:39;35.65;;;19.63;;
69203;SDS011;56317;27.658;85.326;2023-06-10T08:33:06;35.90;;;19.75;;
69203;SDS011;56317;27.658;85.326;2023-06-10T08:35:33;40.92;;;19.52;;
69203;SDS011;56317;27.658;85.326;2023-06-10T08:38:00;33.35;;;18.95;;
69203;SDS011;56317;27.658;85.326;2023-06-10T08:40:28;33.55;;;18.70;;
69203;SDS011;56317;27.658;85.326;2023-06-10T08:43:00;33.35;;;17.75;;
69203;SDS011;56317;27.658;85.326;2023-06-10T08:45:34;41.58;;;21.00;;
69203;SDS011;56317;27.658;85.326;2023-06-10T08:48:03;36.20;;;21.63;;
69203;SDS011;56317;27.658;85.326;2023-06-10T08:50:37;37.42;;;19.95;;
69203;SDS011;56317;27.658;85.326;2023-06-10T08:53:05;33.88;;;19.40;;
69203;SDS011;56317;27.658;85.326;2023-06-10T08:55:34;33.55;;;17.48;;
69203;SDS011;56317;27.658;85.326;2023-06-10T08:58:02;27.50;;;16.27;;
69203;SDS011;56317;27.658;85.326;2023-06-10T09:00:30;31.60;;;16.60;;
69203;SDS011;56317;27.658;85.326;2023-06-10T09:02:58;37.45;;;18.17;;
69203;SDS011;56317;27.658;85.326;2023-06-10T09:05:26;25.17;;;16.65;;
69203;SDS011;56317;27.658;85.326;2023-06-10T09:07:57;26.58;;;16.02;;
69203;SDS011;56317;27.658;85.326;2023-06-10T09:10:26;31.20;;;16.50;;
69203;SDS011;56317;27.658;85.326;2023-06-10T09:12:53;34.83;;;18.73;;
69203;SDS011;56317;27.658;85.326;2023-06-10T09:15:21;30.67;;;18.27;;
69203;SDS011;56317;27.658;85.326;2023-06-10T09:17:48;26.27;;;16.00;;
69203;SDS011;56317;27.658;85.326;2023-06-10T09:20:16;27.50;;;17.00;;
69203;SDS011;56317;27.658;85.326;2023-06-10T09:22:44;28.20;;;16.98;;
69203;SDS011;56317;27.658;85.326;2023-06-10T09:25:12;32.13;;;16.60;;
69203;SDS011;56317;27.658;85.326;2023-06-10T09:27:49;25.98;;;15.43;;
69203;SDS011;56317;27.658;85.326;2023-06-10T09:30:33;29.33;;;15.80;;
69203;SDS011;56317;27.658;85.326;2023-06-10T09:33:01;30.63;;;16.63;;
69203;SDS011;56317;27.658;85.326;2023-06-10T09:35:35;33.65;;;16.48;;
69203;SDS011;56317;27.658;85.326;2023-06-10T09:38:10;31.10;;;16.95;;
69203;SDS011;56317;27.658;85.326;2023-06-10T09:40:50;36.92;;;17.42;;
69203;SDS011;56317;27.658;85.326;2023-06-10T09:43:19;30.73;;;17.75;;
69203;SDS011;56317;27.658;85.326;2023-06-10T09:45:50;24.80;;;15.57;;
69203;SDS011;56317;27.658;85.326;2023-06-10T09:48:21;24.13;;;15.45;;
69203;SDS011;56317;27.658;85.326;2023-06-10T09:50:49;29.17;;;15.55;;
69203;SDS011;56317;27.658;85.326;2023-06-10T09:53:16;33.00;;;16.77;;
69203;SDS011;56317;27.658;85.326;2023-06-10T09:55:44;25.98;;;15.07;;
69203;SDS011;56317;27.658;85.326;2023-06-10T09:58:11;27.15;;;15.95;;
69203;SDS011;56317;27.658;85.326;2023-06-10T10:00:39;32.03;;;16.80;;
69203;SDS011;56317;27.658;85.326;2023-06-10T10:03:07;30.33;;;16.00;;
69203;SDS011;56317;27.658;85.326;2023-06-10T10:05:34;28.58;;;16.35;;
69203;SDS011;56317;27.658;85.326;2023-06-10T10:08:01;28.33;;;17.80;;
69203;SDS011;56317;27.658;85.326;2023-06-10T10:10:28;43.78;;;17.83;;
69203;SDS011;56317;27.658;85.326;2023-06-10T10:12:55;32.60;;;17.63;;
69203;SDS011;56317;27.658;85.326;2023-06-10T10:15:24;26.65;;;16.83;;
69203;SDS011;56317;27.658;85.326;2023-06-10T10:17:58;28.33;;;17.23;;
69203;SDS011;56317;27.658;85.326;2023-06-10T10:20:33;28.23;;;16.67;;
69203;SDS011;56317;27.658;85.326;2023-06-10T10:23:05;29.42;;;17.95;;
69203;SDS011;56317;27.658;85.326;2023-06-10T10:25:35;28.50;;;17.63;;
69203;SDS011;56317;27.658;85.326;2023-06-10T10:28:10;27.92;;;15.98;;
69203;SDS011;56317;27.658;85.326;2023-06-10T10:30:42;34.92;;;16.80;;
69203;SDS011;56317;27.658;85.326;2023-06-10T10:33:20;30.10;;;17.25;;
69203;SDS011;56317;27.658;85.326;2023-06-10T10:35:54;26.88;;;16.77;;
69203;SDS011;56317;27.658;85.326;2023-06-10T10:38:21;27.25;;;16.50;;
69203;SDS011;56317;27.658;85.326;2023-06-10T10:40:49;31.92;;;17.92;;
69203;SDS011;56317;27.658;85.326;2023-06-10T10:43:18;30.85;;;17.67;;
69203;SDS011;56317;27.658;85.326;2023-06-10T10:45:46;33.67;;;18.73;;
69203;SDS011;56317;27.658;85.326;2023-06-10T10:48:23;28.38;;;16.00;;
69203;SDS011;56317;27.658;85.326;2023-06-10T10:50:57;26.65;;;16.67;;
69203;SDS011;56317;27.658;85.326;2023-06-10T10:53:25;28.43;;;16.13;;
69203;SDS011;56317;27.658;85.326;2023-06-10T10:59:01;29.95;;;16.98;;
69203;SDS011;56317;27.658;85.326;2023-06-10T11:01:41;31.00;;;16.27;;
69203;SDS011;56317;27.658;85.326;2023-06-10T11:04:11;25.73;;;16.42;;
69203;SDS011;56317;27.658;85.326;2023-06-10T11:06:39;27.35;;;16.75;;
69203;SDS011;56317;27.658;85.326;2023-06-10T11:09:27;27.27;;;16.92;;
69203;SDS011;56317;27.658;85.326;2023-06-10T11:11:58;33.10;;;16.05;;
69203;SDS011;56317;27.658;85.326;2023-06-10T11:14:28;24.95;;;15.77;;
69203;SDS011;56317;27.658;85.326;2023-06-10T11:16:57;25.45;;;16.27;;
69203;SDS011;56317;27.658;85.326;2023-06-10T11:19:32;34.53;;;16.67;;
69203;SDS011;56317;27.658;85.326;2023-06-10T11:22:04;29.95;;;17.40;;
69203;SDS011;56317;27.658;85.326;2023-06-10T11:24:33;30.20;;;17.77;;
69203;SDS011;56317;27.658;85.326;2023-06-10T11:27:20;27.00;;;16.35;;
69203;SDS011;56317;27.658;85.326;2023-06-10T11:29:57;34.65;;;17.33;;
69203;SDS011;56317;27.658;85.326;2023-06-10T11:32:45;33.28;;;17.65;;
69203;SDS011;56317;27.658;85.326;2023-06-10T11:35:18;28.25;;;17.17;;
69203;SDS011;56317;27.658;85.326;2023-06-10T11:37:47;28.60;;;18.92;;
69203;SDS011;56317;27.658;85.326;2023-06-10T11:40:14;30.05;;;17.15;;
69203;SDS011;56317;27.658;85.326;2023-06-10T11:42:42;29.08;;;18.42;;
69203;SDS011;56317;27.658;85.326;2023-06-10T11:45:09;30.27;;;18.25;;
69203;SDS011;56317;27.658;85.326;2023-06-10T11:47:42;26.50;;;16.52;;
69203;SDS011;56317;27.658;85.326;2023-06-10T11:50:29;41.08;;;19.10;;
69203;SDS011;56317;27.658;85.326;2023-06-10T11:52:57;33.88;;;18.02;;
69203;SDS011;56317;27.658;85.326;2023-06-10T11:55:25;37.53;;;19.58;;
69203;SDS011;56317;27.658;85.326;2023-06-10T11:58:12;39.30;;;22.95;;
69203;SDS011;56317;27.658;85.326;2023-06-10T12:00:44;39.22;;;21.70;;
69203;SDS011;56317;27.658;85.326;2023-06-10T12:03:15;44.78;;;23.70;;
69203;SDS011;56317;27.658;85.326;2023-06-10T12:05:58;41.10;;;23.92;;
69203;SDS011;56317;27.658;85.326;2023-06-10T12:08:27;39.20;;;21.23;;
69203;SDS011;56317;27.658;85.326;2023-06-10T12:10:55;39.58;;;22.58;;
69203;SDS011;56317;27.658;85.326;2023-06-10T12:13:26;38.70;;;20.27;;
69203;SDS011;56317;27.658;85.326;2023-06-10T12:15:53;31.05;;;19.13;;
69203;SDS011;56317;27.658;85.326;2023-06-10T12:18:24;32.20;;;19.50;;
69203;SDS011;56317;27.658;85.326;2023-06-10T12:20:51;37.97;;;20.17;;
69203;SDS011;56317;27.658;85.326;2023-06-10T12:23:18;33.75;;;20.30;;
69203;SDS011;56317;27.658;85.326;2023-06-10T12:25:55;33.00;;;20.52;;
69203;SDS011;56317;27.658;85.326;2023-06-10T12:28:23;32.10;;;20.42;;
69203;SDS011;56317;27.658;85.326;2023-06-10T12:30:51;36.78;;;19.92;;
69203;SDS011;56317;27.658;85.326;2023-06-10T12:33:31;42.13;;;21.42;;
69203;SDS011;56317;27.658;85.326;2023-06-10T12:35:58;33.97;;;21.48;;
69203;SDS011;56317;27.658;85.326;2023-06-10T12:38:25;42.05;;;21.27;;
69203;SDS011;56317;27.658;85.326;2023-06-10T12:40:53;35.03;;;22.25;;
69203;SDS011;56317;27.658;85.326;2023-06-10T12:43:27;38.75;;;22.13;;
69203;SDS011;56317;27.658;85.326;2023-06-10T12:45:54;35.70;;;21.83;;
69203;SDS011;56317;27.658;85.326;2023-06-10T12:48:24;37.65;;;22.98;;
69203;SDS011;56317;27.658;85.326;2023-06-10T12:50:52;43.33;;;21.42;;
69203;SDS011;56317;27.658;85.326;2023-06-10T12:53:21;37.20;;;21.75;;
69203;SDS011;56317;27.658;85.326;2023-06-10T12:55:49;43.85;;;24.00;;
69203;SDS011;56317;27.658;85.326;2023-06-10T12:58:16;43.58;;;22.73;;
69203;SDS011;56317;27.658;85.326;2023-06-10T13:00:45;41.30;;;23.23;;
69203;SDS011;56317;27.658;85.326;2023-06-10T13:03:14;34.40;;;22.27;;
69203;SDS011;56317;27.658;85.326;2023-06-10T13:05:42;39.63;;;23.85;;
69203;SDS011;56317;27.658;85.326;2023-06-10T13:08:09;48.35;;;23.35;;
69203;SDS011;56317;27.658;85.326;2023-06-10T13:10:36;57.38;;;24.23;;
69203;SDS011;56317;27.658;85.326;2023-06-10T13:13:04;43.55;;;23.60;;
69203;SDS011;56317;27.658;85.326;2023-06-10T13:15:33;45.60;;;23.70;;
69203;SDS011;56317;27.658;85.326;2023-06-10T13:18:03;43.60;;;24.25;;
69203;SDS011;56317;27.658;85.326;2023-06-10T13:20:31;46.75;;;25.45;;
69203;SDS011;56317;27.658;85.326;2023-06-10T13:22:59;43.63;;;24.45;;
69203;SDS011;56317;27.658;85.326;2023-06-10T13:25:27;39.45;;;22.50;;
69203;SDS011;56317;27.658;85.326;2023-06-10T13:27:54;43.05;;;24.42;;
69203;SDS011;56317;27.658;85.326;2023-06-10T13:30:21;43.92;;;23.70;;
69203;SDS011;56317;27.658;85.326;2023-06-10T13:32:48;44.72;;;24.92;;
69203;SDS011;56317;27.658;85.326;2023-06-10T13:35:16;38.25;;;23.08;;
69203;SDS011;56317;27.658;85.326;2023-06-10T13:37:43;41.00;;;24.17;;
69203;SDS011;56317;27.658;85.326;2023-06-10T13:40:10;41.83;;;23.95;;
69203;SDS011;56317;27.658;85.326;2023-06-10T13:42:37;44.47;;;24.58;;
69203;SDS011;56317;27.658;85.326;2023-06-10T13:45:05;41.05;;;23.80;;
69203;SDS011;56317;27.658;85.326;2023-06-10T13:47:34;42.63;;;24.48;;
69203;SDS011;56317;27.658;85.326;2023-06-10T13:50:01;40.80;;;24.13;;
69203;SDS011;56317;27.658;85.326;2023-06-10T13:52:28;42.58;;;24.73;;
69203;SDS011;56317;27.658;85.326;2023-06-10T13:54:55;48.55;;;24.52;;
69203;SDS011;56317;27.658;85.326;2023-06-10T13:57:23;49.85;;;26.20;;
69203;SDS011;56317;27.658;85.326;2023-06-10T13:59:50;45.22;;;25.95;;
69203;SDS011;56317;27.658;85.326;2023-06-10T14:02:17;43.15;;;25.23;;
69203;SDS011;56317;27.658;85.326;2023-06-10T14:04:44;44.80;;;26.10;;
69203;SDS011;56317;27.658;85.326;2023-06-10T14:07:13;45.30;;;25.65;;
69203;SDS011;56317;27.658;85.326;2023-06-10T14:09:41;46.58;;;26.42;;
69203;SDS011;56317;27.658;85.326;2023-06-10T14:12:08;45.45;;;25.45;;
69203;SDS011;56317;27.658;85.326;2023-06-10T14:14:35;45.15;;;25.33;;
69203;SDS011;56317;27.658;85.326;2023-06-10T14:17:02;50.88;;;27.27;;
69203;SDS011;56317;27.658;85.326;2023-06-10T14:19:30;44.75;;;24.17;;
69203;SDS011;56317;27.658;85.326;2023-06-10T14:21:57;41.28;;;24.45;;
69203;SDS011;56317;27.658;85.326;2023-06-10T14:24:24;50.38;;;30.48;;
69203;SDS011;56317;27.658;85.326;2023-06-10T14:26:51;96.70;;;76.55;;
69203;SDS011;56317;27.658;85.326;2023-06-10T14:29:18;217.48;;;186.55;;